createdAt,value
2018-03-08T00:02:20.861Z,10.43
2018-03-08T00:04:48.935Z,7.37
2018-03-08T00:07:16.959Z,8.50
2018-03-08T00:09:44.997Z,10.23
2018-03-08T00:12:13.056Z,8.32
2018-03-08T00:14:41.098Z,6.90
2018-03-08T00:17:09.243Z,9.43
2018-03-08T00:19:37.267Z,9.43
2018-03-08T00:22:05.310Z,8.40
2018-03-08T00:24:33.337Z,7.18
2018-03-08T00:27:01.375Z,8.95
2018-03-08T00:29:29.434Z,9.98
2018-03-08T00:31:57.464Z,8.18
2018-03-08T00:34:25.506Z,6.35
2018-03-08T00:36:53.530Z,7.60
2018-03-08T00:39:21.539Z,9.63
2018-03-08T00:41:49.613Z,11.50
2018-03-08T00:44:17.679Z,11.43
2018-03-08T00:46:45.683Z,9.75
2018-03-08T00:49:13.713Z,10.18
2018-03-08T00:51:41.726Z,8.52
2018-03-08T00:54:09.777Z,10.88
2018-03-08T00:56:37.867Z,8.73
2018-03-08T00:59:05.988Z,18.90
2018-03-08T01:01:34.063Z,11.18
2018-03-08T01:04:02.154Z,13.10
2018-03-08T01:06:30.207Z,11.48
2018-03-08T01:08:58.293Z,10.90
2018-03-08T01:11:26.315Z,7.82
2018-03-08T01:13:54.386Z,9.45
2018-03-08T01:16:22.410Z,9.10
2018-03-08T01:18:50.474Z,8.57
2018-03-08T01:21:18.529Z,7.72
2018-03-08T01:23:46.539Z,7.85
2018-03-08T01:26:14.599Z,12.23
2018-03-08T01:28:42.674Z,6.65
2018-03-08T01:31:10.711Z,10.15
2018-03-08T01:33:38.745Z,8.50
2018-03-08T01:36:12.988Z,11.40
2018-03-08T01:38:41.035Z,11.77
2018-03-08T01:41:09.082Z,12.95
2018-03-08T01:43:37.112Z,11.15
2018-03-08T01:46:05.176Z,17.50
2018-03-08T01:48:33.242Z,12.77
2018-03-08T01:51:01.298Z,9.77
2018-03-08T01:53:29.334Z,13.15
2018-03-08T01:55:57.366Z,8.43
2018-03-08T01:58:25.431Z,9.15
2018-03-08T02:00:58.502Z,8.57
2018-03-08T02:03:26.575Z,11.45
2018-03-08T02:05:54.632Z,9.30
2018-03-08T02:08:22.694Z,8.85
2018-03-08T02:10:50.747Z,9.38
2018-03-08T02:13:18.822Z,12.27
2018-03-08T02:15:46.908Z,9.35
2018-03-08T02:18:14.999Z,8.05
2018-03-08T02:20:43.054Z,9.85
2018-03-08T02:23:11.099Z,9.88
2018-03-08T02:25:39.223Z,10.63
2018-03-08T02:28:07.235Z,11.00
2018-03-08T02:30:35.303Z,13.52
2018-03-08T02:33:03.370Z,11.75
2018-03-08T02:35:31.407Z,12.90
2018-03-08T02:37:59.443Z,10.52
2018-03-08T02:40:27.491Z,9.95
2018-03-08T02:42:55.515Z,12.90
2018-03-08T02:45:23.579Z,14.57
2018-03-08T02:47:51.634Z,11.45
2018-03-08T02:50:19.631Z,8.85
2018-03-08T02:52:47.735Z,12.25
2018-03-08T02:55:15.776Z,13.23
2018-03-08T02:57:43.806Z,9.98
2018-03-08T03:00:11.862Z,10.95
2018-03-08T03:02:39.884Z,9.18
2018-03-08T03:05:07.914Z,9.75
2018-03-08T03:07:35.971Z,10.30
2018-03-08T03:10:04.030Z,10.23
2018-03-08T03:12:32.075Z,8.13
2018-03-08T03:15:00.140Z,10.13
2018-03-08T03:17:28.235Z,8.77
2018-03-08T03:19:56.283Z,10.10
2018-03-08T03:22:24.325Z,4.72
2018-03-08T03:24:52.382Z,8.60
2018-03-08T03:27:20.422Z,10.75
2018-03-08T03:29:48.474Z,11.75
2018-03-08T03:32:16.525Z,10.68
2018-03-08T03:34:44.511Z,8.82
2018-03-08T03:37:12.531Z,10.60
2018-03-08T03:39:40.539Z,9.25
2018-03-08T03:42:08.539Z,13.05
2018-03-08T03:44:36.583Z,9.20
2018-03-08T03:47:04.623Z,9.20
2018-03-08T03:49:32.640Z,11.00
2018-03-08T03:52:00.651Z,8.95
2018-03-08T03:54:28.712Z,11.57
2018-03-08T03:56:56.756Z,8.23
2018-03-08T03:59:24.779Z,9.82
2018-03-08T04:01:52.861Z,9.95
2018-03-08T04:04:20.909Z,12.30
2018-03-08T04:06:48.930Z,10.43
2018-03-08T04:09:17.029Z,12.98
2018-03-08T04:11:45.050Z,10.05
2018-03-08T04:14:13.063Z,10.52
2018-03-08T04:16:41.126Z,11.95
2018-03-08T04:19:09.167Z,10.88
2018-03-08T04:21:37.177Z,12.82
2018-03-08T04:24:05.256Z,10.48
2018-03-08T04:26:33.302Z,12.77
2018-03-08T04:29:01.383Z,9.73
2018-03-08T04:31:29.439Z,10.32
2018-03-08T04:33:57.475Z,10.70
2018-03-08T04:36:25.511Z,12.95
2018-03-08T04:38:53.598Z,11.98
2018-03-08T04:41:21.622Z,9.98
2018-03-08T04:43:49.655Z,13.18
2018-03-08T04:46:17.767Z,15.70
2018-03-08T04:48:45.826Z,11.52
2018-03-08T04:51:13.850Z,12.80
2018-03-08T04:53:41.926Z,15.45
2018-03-08T04:56:09.931Z,15.20
2018-03-08T04:58:37.950Z,14.05
2018-03-08T05:01:05.955Z,18.00
2018-03-08T05:03:34.006Z,12.77
2018-03-08T05:06:02.052Z,12.75
2018-03-08T05:08:30.187Z,12.40
2018-03-08T05:10:58.206Z,13.32
2018-03-08T05:13:26.267Z,16.17
2018-03-08T05:15:54.302Z,14.77
2018-03-08T05:18:22.335Z,12.48
2018-03-08T05:20:50.339Z,14.75
2018-03-08T05:23:18.394Z,12.82
2018-03-08T05:25:46.468Z,14.98
2018-03-08T05:28:14.839Z,11.95
2018-03-08T05:30:42.894Z,12.30
2018-03-08T05:33:10.980Z,12.85
2018-03-08T05:35:39.022Z,12.65
2018-03-08T05:38:07.049Z,13.80
2018-03-08T05:40:35.094Z,15.05
2018-03-08T05:43:04.186Z,19.62
2018-03-08T05:45:32.299Z,15.38
2018-03-08T05:48:00.364Z,18.00
2018-03-08T05:50:28.362Z,14.60
2018-03-08T05:52:56.431Z,14.77
2018-03-08T05:55:24.453Z,13.30
2018-03-08T05:57:52.489Z,13.65
2018-03-08T06:00:20.554Z,10.82
2018-03-08T06:02:48.582Z,12.37
2018-03-08T06:05:16.642Z,12.23
2018-03-08T06:07:44.772Z,21.05
2018-03-08T06:10:12.824Z,12.07
2018-03-08T06:12:41.910Z,14.90
2018-03-08T06:15:09.937Z,13.65
2018-03-08T06:17:37.980Z,19.85
2018-03-08T06:20:06.023Z,15.32
2018-03-08T06:22:34.078Z,10.93
2018-03-08T06:25:02.119Z,12.45
2018-03-08T06:27:30.176Z,12.70
2018-03-08T06:29:58.238Z,12.52
2018-03-08T06:32:26.290Z,18.52
2018-03-08T06:34:54.340Z,16.58
2018-03-08T06:37:22.439Z,17.25
2018-03-08T06:39:50.429Z,13.13
2018-03-08T06:42:18.445Z,12.88
2018-03-08T06:44:46.502Z,16.80
2018-03-08T06:47:14.499Z,12.93
2018-03-08T06:49:42.511Z,13.55
2018-03-08T06:52:10.578Z,14.35
2018-03-08T06:54:38.631Z,17.83
2018-03-08T06:57:06.655Z,12.43
2018-03-08T06:59:34.763Z,13.50
2018-03-08T07:02:02.790Z,15.65
2018-03-08T07:04:30.884Z,15.77
2018-03-08T07:06:58.923Z,16.50
2018-03-08T07:09:27.003Z,13.30
2018-03-08T07:11:55.023Z,13.73
2018-03-08T07:14:23.182Z,17.05
2018-03-08T07:16:51.216Z,18.25
2018-03-08T07:19:19.247Z,13.68
2018-03-08T07:21:47.348Z,12.82
2018-03-08T07:24:15.395Z,14.93
2018-03-08T07:26:43.443Z,15.60
2018-03-08T07:29:11.490Z,16.35
2018-03-08T07:31:39.495Z,14.50
2018-03-08T07:34:07.556Z,22.05
2018-03-08T07:36:35.615Z,17.60
2018-03-08T07:39:03.690Z,18.80
2018-03-08T07:41:31.727Z,15.40
2018-03-08T07:43:59.795Z,16.02
2018-03-08T07:46:27.818Z,18.92
2018-03-08T07:48:55.879Z,16.85
2018-03-08T07:51:23.963Z,12.60
2018-03-08T07:53:51.962Z,17.48
2018-03-08T07:56:19.972Z,18.95
2018-03-08T07:58:48.023Z,18.85
2018-03-08T08:01:16.078Z,19.33
2018-03-08T08:03:44.149Z,16.67
2018-03-08T08:06:18.375Z,17.02
2018-03-08T08:08:52.579Z,16.98
2018-03-08T08:11:20.643Z,20.48
2018-03-08T08:13:48.657Z,17.87
2018-03-08T08:16:16.679Z,14.70
2018-03-08T08:18:44.767Z,15.32
2018-03-08T08:21:12.798Z,17.20
2018-03-08T08:23:40.839Z,15.43
2018-03-08T08:26:08.896Z,13.68
2018-03-08T08:28:36.939Z,15.32
2018-03-08T08:31:04.946Z,11.63
2018-03-08T08:33:33.051Z,11.12
2018-03-08T08:36:01.091Z,10.90
2018-03-08T08:38:29.147Z,9.90
2018-03-08T08:40:57.195Z,8.18
2018-03-08T08:43:25.207Z,13.62
2018-03-08T08:45:54.254Z,6.95
2018-03-08T08:48:22.337Z,7.93
2018-03-08T08:50:50.336Z,8.57
2018-03-08T08:53:18.359Z,5.78
2018-03-08T08:55:46.426Z,9.38
2018-03-08T08:58:14.467Z,8.30
2018-03-08T09:00:42.491Z,6.70
2018-03-08T09:03:10.551Z,7.45
2018-03-08T09:05:38.580Z,6.70
2018-03-08T09:08:06.583Z,7.47
2018-03-08T09:10:34.588Z,8.57
2018-03-08T09:13:02.619Z,11.25
2018-03-08T09:15:30.650Z,6.57
2018-03-08T09:17:58.728Z,11.70
2018-03-08T09:20:26.791Z,9.75
2018-03-08T09:22:54.815Z,5.90
2018-03-08T09:25:22.860Z,9.00
2018-03-08T09:27:50.887Z,9.35
2018-03-08T09:30:18.926Z,12.52
2018-03-08T09:32:46.968Z,6.35
2018-03-08T09:35:15.062Z,6.18
2018-03-08T09:37:44.135Z,11.27
2018-03-08T09:40:12.178Z,6.50
2018-03-08T09:42:40.238Z,6.82
2018-03-08T09:45:08.275Z,10.27
2018-03-08T09:47:36.351Z,4.55
2018-03-08T09:50:05.507Z,7.03
2018-03-08T09:52:33.535Z,6.32
2018-03-08T09:55:01.584Z,5.05
2018-03-08T09:57:29.599Z,7.43
2018-03-08T09:59:57.688Z,8.65
2018-03-08T10:02:25.759Z,5.50
2018-03-08T10:04:53.771Z,5.78
2018-03-08T10:07:21.819Z,9.10
2018-03-08T10:09:50.879Z,5.05
2018-03-08T10:12:18.919Z,5.32
2018-03-08T10:14:46.963Z,6.80
2018-03-08T10:17:15.043Z,8.25
2018-03-08T10:19:43.071Z,7.57
2018-03-08T10:22:11.157Z,7.85
2018-03-08T10:24:39.231Z,7.75
2018-03-08T10:27:07.307Z,5.90
2018-03-08T10:29:35.350Z,4.53
2018-03-08T10:32:03.399Z,4.55
2018-03-08T10:34:31.463Z,8.18
2018-03-08T10:36:59.689Z,4.05
2018-03-08T10:41:55.738Z,5.53
2018-03-08T10:44:23.764Z,6.83
2018-03-08T10:46:51.830Z,9.05
2018-03-08T10:49:19.899Z,5.95
2018-03-08T10:51:47.958Z,3.55
2018-03-08T10:54:16.066Z,8.40
2018-03-08T10:56:44.087Z,3.30
2018-03-08T10:59:12.950Z,4.62
2018-03-08T11:01:43.183Z,4.22
2018-03-08T11:04:14.017Z,5.12
2018-03-08T11:06:42.080Z,5.60
2018-03-08T11:09:10.155Z,5.57
2018-03-08T11:11:38.187Z,6.00
2018-03-08T11:14:06.250Z,4.97
2018-03-08T11:16:35.412Z,8.20
2018-03-08T11:19:03.503Z,3.93
2018-03-08T11:21:31.574Z,7.07
2018-03-08T11:23:59.648Z,8.52
2018-03-08T11:26:27.667Z,3.03
2018-03-08T11:28:55.703Z,12.60
2018-03-08T11:31:23.794Z,4.57
2018-03-08T11:33:51.839Z,4.70
2018-03-08T11:36:19.913Z,2.70
2018-03-08T11:38:48.040Z,5.20
2018-03-08T11:41:16.103Z,4.87
2018-03-08T11:43:44.257Z,5.63
2018-03-08T11:46:12.300Z,2.60
2018-03-08T11:48:40.357Z,6.47
2018-03-08T11:51:08.395Z,8.20
2018-03-08T11:53:36.399Z,4.47
2018-03-08T11:56:04.459Z,6.65
2018-03-08T11:58:32.505Z,3.13
2018-03-08T12:01:00.547Z,3.10
2018-03-08T12:03:29.715Z,3.13
2018-03-08T12:05:57.763Z,6.70
2018-03-08T12:08:25.813Z,4.10
2018-03-08T12:10:53.852Z,3.33
2018-03-08T12:13:21.870Z,3.03
2018-03-08T12:15:49.879Z,3.63
2018-03-08T12:18:17.878Z,8.80
2018-03-08T12:20:45.980Z,3.63
2018-03-08T12:23:14.053Z,6.80
2018-03-08T12:25:42.043Z,2.57
2018-03-08T12:28:10.104Z,3.30
2018-03-08T12:30:38.190Z,3.83
2018-03-08T12:33:06.259Z,4.30
2018-03-08T12:35:34.346Z,3.77
2018-03-08T12:38:02.355Z,1.97
2018-03-08T12:40:30.435Z,3.70
2018-03-08T12:42:58.498Z,2.53
2018-03-08T12:45:26.544Z,1.13
2018-03-08T12:47:54.538Z,6.37
2018-03-08T12:50:22.616Z,5.53
2018-03-08T12:52:50.679Z,2.33
2018-03-08T12:55:18.699Z,3.50
2018-03-08T12:57:46.741Z,4.83
2018-03-08T13:00:15.556Z,4.80
2018-03-08T13:02:43.590Z,3.40
2018-03-08T13:05:11.667Z,1.83
2018-03-08T13:07:39.710Z,3.80
2018-03-08T13:10:07.744Z,2.33
2018-03-08T13:12:35.799Z,6.67
2018-03-08T13:15:03.903Z,2.93
2018-03-08T13:17:31.954Z,2.80
2018-03-08T13:19:59.977Z,11.60
2018-03-08T13:22:28.038Z,1.27
2018-03-08T13:24:56.102Z,8.20
2018-03-08T13:27:24.103Z,2.67
2018-03-08T13:29:52.171Z,1.23
2018-03-08T13:32:20.214Z,3.23
2018-03-08T13:34:48.291Z,1.53
2018-03-08T13:37:16.366Z,3.83
2018-03-08T13:39:44.418Z,4.13
2018-03-08T13:42:12.501Z,2.20
2018-03-08T13:44:40.566Z,4.27
2018-03-08T13:47:08.672Z,1.37
2018-03-08T13:49:36.794Z,1.40
2018-03-08T13:52:05.966Z,11.23
2018-03-08T13:54:34.020Z,4.17
2018-03-08T13:57:02.050Z,3.00
2018-03-08T13:59:31.169Z,2.40
2018-03-08T14:01:59.211Z,2.30
2018-03-08T14:04:27.295Z,1.23
2018-03-08T14:06:55.351Z,1.47
2018-03-08T14:09:23.414Z,3.73
2018-03-08T14:11:52.467Z,4.30
2018-03-08T14:14:20.499Z,2.10
2018-03-08T14:16:48.538Z,1.70
2018-03-08T14:19:16.588Z,1.53
2018-03-08T14:21:44.963Z,4.00
2018-03-08T14:24:13.006Z,2.13
2018-03-08T14:26:41.055Z,1.43
2018-03-08T14:29:09.121Z,1.67
2018-03-08T14:31:37.186Z,4.13
2018-03-08T14:34:05.222Z,3.40
2018-03-08T14:36:33.268Z,3.60
2018-03-08T14:39:01.328Z,1.00
2018-03-08T14:41:29.411Z,4.50
2018-03-08T14:43:57.460Z,1.60
2018-03-08T14:46:25.506Z,3.30
2018-03-08T14:48:53.532Z,2.47
2018-03-08T14:51:21.591Z,3.07
2018-03-08T14:53:49.626Z,5.80
2018-03-08T14:56:17.675Z,6.67
2018-03-08T14:58:45.719Z,3.60
2018-03-08T15:01:13.786Z,1.13
2018-03-08T15:03:41.843Z,3.67
2018-03-08T15:06:09.910Z,5.50
2018-03-08T15:08:37.965Z,3.03
2018-03-08T15:11:06.070Z,1.97
2018-03-08T15:13:34.139Z,3.30
2018-03-08T15:16:02.171Z,1.17
2018-03-08T15:18:30.207Z,4.33
2018-03-08T15:20:58.299Z,1.43
2018-03-08T15:23:26.351Z,1.57
2018-03-08T15:25:54.382Z,0.53
2018-03-08T15:28:22.447Z,3.70
2018-03-08T15:30:50.495Z,1.30
2018-03-08T15:33:18.542Z,2.97
2018-03-08T15:35:46.565Z,3.90
2018-03-08T15:38:14.587Z,3.73
2018-03-08T15:40:42.675Z,3.40
2018-03-08T15:43:10.679Z,1.70
2018-03-08T15:45:38.743Z,1.20
2018-03-08T15:48:06.776Z,5.13
2018-03-08T15:50:34.908Z,1.87
2018-03-08T15:53:02.948Z,1.53
2018-03-08T15:55:30.996Z,1.67
2018-03-08T15:57:59.028Z,1.73
2018-03-08T16:00:27.074Z,0.97
2018-03-08T16:02:55.143Z,1.23
2018-03-08T16:05:23.193Z,3.80
2018-03-08T16:08:08.183Z,1.23
2018-03-08T16:10:36.234Z,5.40
2018-03-08T16:13:04.247Z,4.97
2018-03-08T16:15:32.287Z,1.10
2018-03-08T16:18:00.374Z,2.73
2018-03-08T16:20:28.431Z,2.60
2018-03-08T16:22:56.486Z,2.50
2018-03-08T16:25:24.548Z,1.83
2018-03-08T16:27:52.602Z,0.90
2018-03-08T16:30:20.627Z,1.67
2018-03-08T16:32:48.691Z,5.50
2018-03-08T16:35:16.695Z,2.23
2018-03-08T16:37:44.738Z,3.60
2018-03-08T16:40:12.818Z,0.77
2018-03-08T16:42:41.842Z,5.10
2018-03-08T16:45:09.913Z,2.40
2018-03-08T16:47:37.943Z,0.83
2018-03-08T16:50:05.989Z,1.97
2018-03-08T16:52:34.059Z,2.33
2018-03-08T16:55:02.103Z,1.07
2018-03-08T16:57:31.040Z,3.57
2018-03-08T16:59:59.157Z,2.00
2018-03-08T17:02:27.263Z,5.47
2018-03-08T17:04:55.300Z,1.27
2018-03-08T17:07:23.373Z,3.23
2018-03-08T17:09:51.501Z,1.23
2018-03-08T17:12:19.521Z,4.97
2018-03-08T17:14:47.619Z,2.63
2018-03-08T17:17:15.635Z,4.77
2018-03-08T17:19:43.663Z,2.23
2018-03-08T17:22:11.688Z,1.97
2018-03-08T17:24:39.780Z,1.10
2018-03-08T17:27:07.869Z,2.00
2018-03-08T17:29:35.916Z,1.20
2018-03-08T17:32:04.231Z,6.00
2018-03-08T17:34:32.300Z,1.00
2018-03-08T17:37:00.348Z,4.60
2018-03-08T17:39:29.470Z,2.50
2018-03-08T17:41:57.487Z,0.70
2018-03-08T17:44:25.503Z,0.87
2018-03-08T17:46:53.560Z,1.80
2018-03-08T17:49:21.655Z,17.40
2018-03-08T17:51:49.749Z,3.35
2018-03-08T17:54:17.839Z,1.00
2018-03-08T17:56:45.895Z,2.50
2018-03-08T17:59:13.948Z,0.90
2018-03-08T18:01:41.987Z,1.50
2018-03-08T18:04:10.015Z,2.13
2018-03-08T18:06:38.056Z,2.57
2018-03-08T18:09:06.309Z,1.83
2018-03-08T18:11:34.389Z,3.58
2018-03-08T18:14:02.407Z,2.65
2018-03-08T18:16:30.441Z,5.10
2018-03-08T18:18:58.881Z,1.45
2018-03-08T18:21:26.978Z,2.70
2018-03-08T18:23:55.046Z,0.70
2018-03-08T18:26:23.111Z,0.60
2018-03-08T18:28:51.190Z,1.30
2018-03-08T18:31:19.206Z,0.88
2018-03-08T18:33:47.267Z,0.40
2018-03-08T18:36:15.347Z,0.40
2018-03-08T18:38:43.375Z,2.00
2018-03-08T18:41:11.499Z,0.37
2018-03-08T18:43:39.523Z,1.12
2018-03-08T18:46:07.587Z,0.85
2018-03-08T18:48:35.639Z,1.20
2018-03-08T18:51:03.691Z,2.15
2018-03-08T18:53:31.806Z,1.20
2018-03-08T18:55:59.937Z,0.52
2018-03-08T18:58:27.967Z,1.62
2018-03-08T19:00:56.047Z,2.10
2018-03-08T19:03:24.039Z,0.47
2018-03-08T19:05:52.116Z,0.40
2018-03-08T19:08:20.192Z,0.40
2018-03-08T19:10:48.176Z,2.35
2018-03-08T19:13:16.215Z,0.68
2018-03-08T19:15:44.298Z,0.60
2018-03-08T19:18:12.347Z,1.52
2018-03-08T19:20:40.400Z,4.05
2018-03-08T19:23:08.451Z,0.55
2018-03-08T19:25:36.463Z,0.68
2018-03-08T19:28:04.506Z,1.42
2018-03-08T19:30:32.559Z,5.65
2018-03-08T19:33:00.570Z,2.10
2018-03-08T19:35:28.615Z,2.47
2018-03-08T19:37:56.704Z,3.75
2018-03-08T19:40:24.758Z,1.92
2018-03-08T19:42:52.847Z,5.75
2018-03-08T19:45:21.899Z,2.37
2018-03-08T19:47:50.010Z,1.92
2018-03-08T19:50:18.088Z,10.70
2018-03-08T19:52:46.118Z,3.28
2018-03-08T19:55:14.191Z,1.67
2018-03-08T19:57:42.303Z,2.53
2018-03-08T20:00:10.375Z,1.35
2018-03-08T20:02:38.458Z,1.40
2018-03-08T20:05:06.498Z,1.70
2018-03-08T20:07:34.539Z,2.47
2018-03-08T20:10:02.870Z,2.92
2018-03-08T20:12:31.016Z,3.97
2018-03-08T20:14:59.173Z,0.57
2018-03-08T20:17:27.211Z,1.48
2018-03-08T20:19:55.270Z,1.70
2018-03-08T20:22:23.332Z,1.67
2018-03-08T20:24:51.379Z,0.77
2018-03-08T20:27:19.483Z,1.25
2018-03-08T20:29:47.538Z,0.70
2018-03-08T20:32:15.575Z,1.45
2018-03-08T20:34:43.611Z,1.00
2018-03-08T20:37:11.690Z,0.55
2018-03-08T20:39:39.749Z,0.47
2018-03-08T20:42:07.760Z,0.82
2018-03-08T20:44:35.883Z,0.73
2018-03-08T20:47:04.002Z,0.88
2018-03-08T20:49:32.148Z,5.85
2018-03-08T20:52:00.235Z,0.50
2018-03-08T20:54:28.335Z,0.85
2018-03-08T20:56:57.443Z,0.52
2018-03-08T20:59:25.543Z,2.05
2018-03-08T21:01:53.574Z,1.85
2018-03-08T21:04:21.701Z,2.75
2018-03-08T21:06:49.901Z,1.73
2018-03-08T21:09:17.975Z,2.35
2018-03-08T21:11:45.983Z,0.60
2018-03-08T21:14:14.034Z,2.60
2018-03-08T21:16:42.287Z,2.50
2018-03-08T21:19:11.440Z,1.98
2018-03-08T21:21:39.513Z,1.40
2018-03-08T21:24:07.588Z,1.33
2018-03-08T21:26:35.622Z,0.90
2018-03-08T21:29:03.774Z,1.00
2018-03-08T21:31:31.827Z,1.05
2018-03-08T21:33:59.859Z,0.57
2018-03-08T21:36:27.906Z,0.75
2018-03-08T21:38:56.089Z,1.70
2018-03-08T21:41:24.193Z,0.80
2018-03-08T21:43:52.275Z,1.30
2018-03-08T21:46:20.304Z,2.55
2018-03-08T21:48:48.358Z,2.37
2018-03-08T21:51:16.520Z,1.45
2018-03-08T21:53:44.651Z,1.45
2018-03-08T21:56:12.666Z,1.77
2018-03-08T21:58:40.695Z,2.28
2018-03-08T22:01:08.723Z,2.15
2018-03-08T22:03:36.764Z,2.20
2018-03-08T22:06:04.835Z,0.68
2018-03-08T22:08:32.860Z,1.00
2018-03-08T22:11:00.921Z,1.87
2018-03-08T22:13:28.922Z,6.25
2018-03-08T22:15:57.007Z,2.20
2018-03-08T22:18:25.047Z,0.80
2018-03-08T22:20:53.067Z,1.25
2018-03-08T22:23:21.127Z,2.10
2018-03-08T22:25:49.195Z,1.45
2018-03-08T22:28:17.283Z,1.08
2018-03-08T22:30:45.315Z,2.03
2018-03-08T22:33:13.377Z,2.00
2018-03-08T22:35:41.427Z,0.75
2018-03-08T22:38:09.454Z,0.60
2018-03-08T22:40:37.525Z,3.70
2018-03-08T22:43:05.592Z,2.28
2018-03-08T22:45:34.633Z,0.93
2018-03-08T22:48:02.698Z,1.55
2018-03-08T22:50:30.778Z,0.70
2018-03-08T22:52:58.798Z,4.03
2018-03-08T22:55:26.856Z,1.75
2018-03-08T22:57:54.934Z,1.12
2018-03-08T23:00:23.014Z,2.10
2018-03-08T23:02:57.147Z,1.35
2018-03-08T23:05:25.220Z,2.85
2018-03-08T23:07:53.242Z,1.95
2018-03-08T23:10:21.292Z,2.50
2018-03-08T23:12:49.357Z,2.53
2018-03-08T23:15:17.400Z,3.30
2018-03-08T23:17:45.427Z,8.50
2018-03-08T23:20:13.494Z,3.37
2018-03-08T23:22:41.540Z,1.00
2018-03-08T23:25:09.550Z,6.00
2018-03-08T23:27:37.579Z,1.35
2018-03-08T23:30:05.583Z,5.35
2018-03-08T23:32:33.586Z,1.15
2018-03-08T23:35:01.619Z,1.05
2018-03-08T23:37:30.762Z,3.22
2018-03-08T23:39:58.778Z,1.15
2018-03-08T23:42:26.860Z,3.17
2018-03-08T23:44:54.895Z,3.03
2018-03-08T23:47:22.926Z,2.42
2018-03-08T23:49:50.999Z,2.58
2018-03-08T23:52:19.018Z,3.05
2018-03-08T23:54:47.075Z,2.60
2018-03-08T23:57:15.102Z,4.03
2018-03-08T23:59:43.086Z,4.05
